Eleven Point River (Missouri), Ravenden Springs (07072000)

StateMissouriLatestGood (1330 cfs)
RiverEleven Point RiverRatingObservedEstimated
Updated2020-07-13 19:45 (34 minutes ago)Flood - The river is flooding. Obstacles can be treacherous or deadly. The river should be avoided at this stage for casual trips and definitely for the inexperienced. Trips should be attempted only with protective gear and equipment.Flood(none)3035
Discharge1330 cfs (median: 786 cfs)High - The river is high and potentially dangerous, especially for the young and / or inexperienced. Normal stream obstacles are sometimes difficult to navigate. Extended distances can be attempted, but canoe travel may not be advisable.High(none)1402
Height4.14 feetGood - Conditions are ideal for a canoe or kayak. Boats typically will drag on fewer than one-quarter of riffles, if at all, and portages are unnecessary or rare. Normal float lengths can be attempted without a problem.Good(none)1027
TrendSteady (falling over 24 hours)Low - River is low but can still be floated. Some riffles are okay but most come with significant dragging and might need a portage. Float lengths should be reduced to accommodate low flow, dragging, and portages.Low(none)777
USGSExternal icon USGS Site (External icon Google Maps)Poor - River is too low to float comfortably. Most or all riffles will drag or must be portaged and some obstacles (such as slick shelf rock) cause undue problems. Avoid the river at this stage for casual paddling trips.Poor(none)414

Trending Data

Plot Image

Trips for Eleven Point River (Missouri), Ravenden Springs (07072000)

DateStartEndDistanceConditionDischargeHeightFishingDetails

A total of 0 rows are displayed.

Condition Descriptions

Fishing Conditions

Fish Species

Notes

Classic Trip List

The classic River Trips application is still available for use. It is updated with the new system using a data retrofit. It is no longer maintained. The original River Trips application is no longer updated (as of 1 Dec 2016) but can be checked for errors or for the condition of the data before it was converted to the new system.

Gauge Data Table

ObservationHeightDischargeMaximum
Discharge
Minimum
Discharge
Mean
Discharge
P05P10P20P25P50
(Median)
P75P80P90P95
2020-07-13 19:45 4.14 1330 2990 (1951) 314 (1936) 882 391 486 570 617 786 1040 1110 1340 1820
2020-07-13 18:45 4.15 1330 2990 (1951) 314 (1936) 882 391 486 570 617 786 1040 1110 1340 1820
2020-07-13 17:45 4.16 1340 2990 (1951) 314 (1936) 882 391 486 570 617 786 1040 1110 1340 1820
2020-07-13 16:45 4.16 1340 2990 (1951) 314 (1936) 882 391 486 570 617 786 1040 1110 1340 1820
2020-07-13 15:45 4.13 1320 2990 (1951) 314 (1936) 882 391 486 570 617 786 1040 1110 1340 1820
2020-07-13 14:45 4.17 1350 2990 (1951) 314 (1936) 882 391 486 570 617 786 1040 1110 1340 1820
2020-07-13 13:45 4.16 1340 2990 (1951) 314 (1936) 882 391 486 570 617 786 1040 1110 1340 1820
2020-07-13 12:45 4.16 1340 2990 (1951) 314 (1936) 882 391 486 570 617 786 1040 1110 1340 1820
2020-07-13 11:45 4.16 1340 2990 (1951) 314 (1936) 882 391 486 570 617 786 1040 1110 1340 1820
2020-07-13 10:45 4.16 1340 2990 (1951) 314 (1936) 882 391 486 570 617 786 1040 1110 1340 1820
2020-07-13 09:45 4.15 1330 2990 (1951) 314 (1936) 882 391 486 570 617 786 1040 1110 1340 1820
2020-07-13 08:45 4.15 1330 2990 (1951) 314 (1936) 882 391 486 570 617 786 1040 1110 1340 1820
2020-07-13 07:45 4.16 1340 2990 (1951) 314 (1936) 882 391 486 570 617 786 1040 1110 1340 1820
2020-07-13 06:45 4.16 1340 2990 (1951) 314 (1936) 882 391 486 570 617 786 1040 1110 1340 1820
2020-07-13 05:45 4.17 1350 2990 (1951) 314 (1936) 882 391 486 570 617 786 1040 1110 1340 1820
2020-07-13 04:45 4.17 1350 2990 (1951) 314 (1936) 882 391 486 570 617 786 1040 1110 1340 1820
2020-07-13 03:45 4.17 1350 2990 (1951) 314 (1936) 882 391 486 570 617 786 1040 1110 1340 1820
2020-07-13 02:45 4.17 1350 2990 (1951) 314 (1936) 882 391 486 570 617 786 1040 1110 1340 1820
2020-07-13 01:45 4.18 1360 2990 (1951) 314 (1936) 882 391 486 570 617 786 1040 1110 1340 1820
2020-07-13 00:45 4.18 1360 2990 (1951) 314 (1936) 882 391 486 570 617 786 1040 1110 1340 1820
2020-07-12 23:45 4.19 1360 4470 (1951) 309 (1936) 921 410 502 579 611 789 1040 1110 1470 1760
2020-07-12 22:45 4.20 1370 4470 (1951) 309 (1936) 921 410 502 579 611 789 1040 1110 1470 1760
2020-07-12 21:45 4.21 1380 4470 (1951) 309 (1936) 921 410 502 579 611 789 1040 1110 1470 1760
2020-07-12 20:45 4.20 1370 4470 (1951) 309 (1936) 921 410 502 579 611 789 1040 1110 1470 1760
2020-07-12 19:45 4.20 1370 4470 (1951) 309 (1936) 921 410 502 579 611 789 1040 1110 1470 1760
2020-07-12 18:45 4.20 1370 4470 (1951) 309 (1936) 921 410 502 579 611 789 1040 1110 1470 1760
2020-07-12 17:45 4.19 1360 4470 (1951) 309 (1936) 921 410 502 579 611 789 1040 1110 1470 1760
2020-07-12 16:45 4.19 1360 4470 (1951) 309 (1936) 921 410 502 579 611 789 1040 1110 1470 1760
2020-07-12 15:45 4.18 1360 4470 (1951) 309 (1936) 921 410 502 579 611 789 1040 1110 1470 1760
2020-07-12 14:45 4.16 1340 4470 (1951) 309 (1936) 921 410 502 579 611 789 1040 1110 1470 1760
2020-07-12 13:45 4.17 1350 4470 (1951) 309 (1936) 921 410 502 579 611 789 1040 1110 1470 1760
2020-07-12 12:45 4.18 1360 4470 (1951) 309 (1936) 921 410 502 579 611 789 1040 1110 1470 1760
2020-07-12 11:45 4.17 1350 4470 (1951) 309 (1936) 921 410 502 579 611 789 1040 1110 1470 1760
2020-07-12 10:45 4.18 1360 4470 (1951) 309 (1936) 921 410 502 579 611 789 1040 1110 1470 1760
2020-07-12 09:45 4.16 1340 4470 (1951) 309 (1936) 921 410 502 579 611 789 1040 1110 1470 1760
2020-07-12 08:45 4.18 1360 4470 (1951) 309 (1936) 921 410 502 579 611 789 1040 1110 1470 1760
2020-07-12 07:45 4.17 1350 4470 (1951) 309 (1936) 921 410 502 579 611 789 1040 1110 1470 1760
2020-07-12 06:45 4.17 1350 4470 (1951) 309 (1936) 921 410 502 579 611 789 1040 1110 1470 1760
2020-07-12 05:45 4.17 1350 4470 (1951) 309 (1936) 921 410 502 579 611 789 1040 1110 1470 1760
2020-07-12 04:45 4.17 1350 4470 (1951) 309 (1936) 921 410 502 579 611 789 1040 1110 1470 1760
2020-07-12 03:45 4.17 1350 4470 (1951) 309 (1936) 921 410 502 579 611 789 1040 1110 1470 1760
2020-07-12 02:45 4.18 1360 4470 (1951) 309 (1936) 921 410 502 579 611 789 1040 1110 1470 1760
2020-07-12 01:45 4.17 1350 4470 (1951) 309 (1936) 921 410 502 579 611 789 1040 1110 1470 1760
2020-07-12 00:45 4.18 1360 4470 (1951) 309 (1936) 921 410 502 579 611 789 1040 1110 1470 1760
2020-07-11 23:45 4.18 1360 6400 (1951) 314 (1936) 939 405 486 566 605 805 1050 1100 1350 1710
2020-07-11 22:45 4.18 1360 6400 (1951) 314 (1936) 939 405 486 566 605 805 1050 1100 1350 1710
2020-07-11 21:45 4.18 1360 6400 (1951) 314 (1936) 939 405 486 566 605 805 1050 1100 1350 1710
2020-07-11 20:45 4.18 1360 6400 (1951) 314 (1936) 939 405 486 566 605 805 1050 1100 1350 1710
2020-07-11 19:45 4.18 1360 6400 (1951) 314 (1936) 939 405 486 566 605 805 1050 1100 1350 1710
2020-07-11 18:45 4.19 1360 6400 (1951) 314 (1936) 939 405 486 566 605 805 1050 1100 1350 1710
2020-07-11 17:45 4.17 1350 6400 (1951) 314 (1936) 939 405 486 566 605 805 1050 1100 1350 1710
2020-07-11 16:45 4.20 1370 6400 (1951) 314 (1936) 939 405 486 566 605 805 1050 1100 1350 1710
2020-07-11 15:45 4.17 1350 6400 (1951) 314 (1936) 939 405 486 566 605 805 1050 1100 1350 1710
2020-07-11 14:45 4.20 1370 6400 (1951) 314 (1936) 939 405 486 566 605 805 1050 1100 1350 1710
2020-07-11 13:45 4.20 1370 6400 (1951) 314 (1936) 939 405 486 566 605 805 1050 1100 1350 1710
2020-07-11 12:45 4.19 1360 6400 (1951) 314 (1936) 939 405 486 566 605 805 1050 1100 1350 1710
2020-07-11 11:45 4.20 1370 6400 (1951) 314 (1936) 939 405 486 566 605 805 1050 1100 1350 1710
2020-07-11 10:45 4.19 1360 6400 (1951) 314 (1936) 939 405 486 566 605 805 1050 1100 1350 1710
2020-07-11 09:45 4.19 1360 6400 (1951) 314 (1936) 939 405 486 566 605 805 1050 1100 1350 1710
2020-07-11 08:45 4.20 1370 6400 (1951) 314 (1936) 939 405 486 566 605 805 1050 1100 1350 1710
2020-07-11 07:45 4.20 1370 6400 (1951) 314 (1936) 939 405 486 566 605 805 1050 1100 1350 1710
2020-07-11 06:45 4.20 1370 6400 (1951) 314 (1936) 939 405 486 566 605 805 1050 1100 1350 1710
2020-07-11 05:45 4.21 1380 6400 (1951) 314 (1936) 939 405 486 566 605 805 1050 1100 1350 1710
2020-07-11 04:45 4.21 1380 6400 (1951) 314 (1936) 939 405 486 566 605 805 1050 1100 1350 1710
2020-07-11 03:45 4.21 1380 6400 (1951) 314 (1936) 939 405 486 566 605 805 1050 1100 1350 1710
2020-07-11 02:45 4.20 1370 6400 (1951) 314 (1936) 939 405 486 566 605 805 1050 1100 1350 1710
2020-07-11 01:45 4.22 1380 6400 (1951) 314 (1936) 939 405 486 566 605 805 1050 1100 1350 1710
2020-07-11 00:45 4.21 1380 6400 (1951) 314 (1936) 939 405 486 566 605 805 1050 1100 1350 1710
2020-07-10 23:45 4.22 1380 3760 (1951) 300 (1936) 926 410 497 576 600 808 1070 1140 1340 2320
2020-07-10 22:45 4.22 1380 3760 (1951) 300 (1936) 926 410 497 576 600 808 1070 1140 1340 2320
2020-07-10 21:45 4.22 1380 3760 (1951) 300 (1936) 926 410 497 576 600 808 1070 1140 1340 2320
2020-07-10 20:45 4.22 1380 3760 (1951) 300 (1936) 926 410 497 576 600 808 1070 1140 1340 2320
2020-07-10 19:45 4.22 1380 3760 (1951) 300 (1936) 926 410 497 576 600 808 1070 1140 1340 2320
2020-07-10 18:45 4.23 1390 3760 (1951) 300 (1936) 926 410 497 576 600 808 1070 1140 1340 2320
2020-07-10 17:45 4.23 1390 3760 (1951) 300 (1936) 926 410 497 576 600 808 1070 1140 1340 2320
2020-07-10 16:45 4.23 1390 3760 (1951) 300 (1936) 926 410 497 576 600 808 1070 1140 1340 2320
2020-07-10 15:45 4.23 1390 3760 (1951) 300 (1936) 926 410 497 576 600 808 1070 1140 1340 2320
2020-07-10 14:45 4.24 1400 3760 (1951) 300 (1936) 926 410 497 576 600 808 1070 1140 1340 2320
2020-07-10 13:45 4.23 1390 3760 (1951) 300 (1936) 926 410 497 576 600 808 1070 1140 1340 2320
2020-07-10 12:45 4.22 1380 3760 (1951) 300 (1936) 926 410 497 576 600 808 1070 1140 1340 2320
2020-07-10 11:45 4.23 1390 3760 (1951) 300 (1936) 926 410 497 576 600 808 1070 1140 1340 2320
2020-07-10 10:45 4.23 1390 3760 (1951) 300 (1936) 926 410 497 576 600 808 1070 1140 1340 2320
2020-07-10 09:45 4.22 1380 3760 (1951) 300 (1936) 926 410 497 576 600 808 1070 1140 1340 2320
2020-07-10 08:45 4.22 1380 3760 (1951) 300 (1936) 926 410 497 576 600 808 1070 1140 1340 2320
2020-07-10 07:45 4.23 1390 3760 (1951) 300 (1936) 926 410 497 576 600 808 1070 1140 1340 2320
2020-07-10 06:45 4.23 1390 3760 (1951) 300 (1936) 926 410 497 576 600 808 1070 1140 1340 2320
2020-07-10 05:45 4.23 1390 3760 (1951) 300 (1936) 926 410 497 576 600 808 1070 1140 1340 2320
2020-07-10 04:45 4.23 1390 3760 (1951) 300 (1936) 926 410 497 576 600 808 1070 1140 1340 2320
2020-07-10 03:45 4.23 1390 3760 (1951) 300 (1936) 926 410 497 576 600 808 1070 1140 1340 2320
2020-07-10 02:45 4.23 1390 3760 (1951) 300 (1936) 926 410 497 576 600 808 1070 1140 1340 2320
2020-07-10 01:45 4.23 1390 3760 (1951) 300 (1936) 926 410 497 576 600 808 1070 1140 1340 2320
2020-07-10 00:45 4.24 1400 3760 (1951) 300 (1936) 926 410 497 576 600 808 1070 1140 1340 2320
2020-07-09 23:45 4.23 1390 3480 (1949) 314 (1936) 908 416 508 579 611 808 1070 1140 1310 1780
2020-07-09 22:45 4.22 1380 3480 (1949) 314 (1936) 908 416 508 579 611 808 1070 1140 1310 1780
2020-07-09 21:45 4.23 1390 3480 (1949) 314 (1936) 908 416 508 579 611 808 1070 1140 1310 1780
2020-07-09 20:45 4.24 1400 3480 (1949) 314 (1936) 908 416 508 579 611 808 1070 1140 1310 1780
2020-07-09 19:45 4.24 1400 3480 (1949) 314 (1936) 908 416 508 579 611 808 1070 1140 1310 1780
2020-07-09 18:45 4.24 1400 3480 (1949) 314 (1936) 908 416 508 579 611 808 1070 1140 1310 1780
2020-07-09 17:45 4.24 1400 3480 (1949) 314 (1936) 908 416 508 579 611 808 1070 1140 1310 1780
2020-07-09 16:45 4.25 1410 3480 (1949) 314 (1936) 908 416 508 579 611 808 1070 1140 1310 1780
2020-07-09 15:45 4.24 1400 3480 (1949) 314 (1936) 908 416 508 579 611 808 1070 1140 1310 1780
2020-07-09 14:45 4.25 1410 3480 (1949) 314 (1936) 908 416 508 579 611 808 1070 1140 1310 1780
2020-07-09 13:45 4.25 1410 3480 (1949) 314 (1936) 908 416 508 579 611 808 1070 1140 1310 1780
2020-07-09 12:45 4.25 1410 3480 (1949) 314 (1936) 908 416 508 579 611 808 1070 1140 1310 1780
2020-07-09 11:45 4.26 1410 3480 (1949) 314 (1936) 908 416 508 579 611 808 1070 1140 1310 1780
2020-07-09 10:45 4.25 1410 3480 (1949) 314 (1936) 908 416 508 579 611 808 1070 1140 1310 1780
2020-07-09 09:45 4.24 1400 3480 (1949) 314 (1936) 908 416 508 579 611 808 1070 1140 1310 1780
2020-07-09 08:45 4.25 1410 3480 (1949) 314 (1936) 908 416 508 579 611 808 1070 1140 1310 1780
2020-07-09 07:45 4.25 1410 3480 (1949) 314 (1936) 908 416 508 579 611 808 1070 1140 1310 1780
2020-07-09 06:45 4.25 1410 3480 (1949) 314 (1936) 908 416 508 579 611 808 1070 1140 1310 1780
2020-07-09 05:45 4.25 1410 3480 (1949) 314 (1936) 908 416 508 579 611 808 1070 1140 1310 1780
2020-07-09 04:45 4.26 1410 3480 (1949) 314 (1936) 908 416 508 579 611 808 1070 1140 1310 1780
2020-07-09 03:45 4.25 1410 3480 (1949) 314 (1936) 908 416 508 579 611 808 1070 1140 1310 1780
2020-07-09 02:45 4.25 1410 3480 (1949) 314 (1936) 908 416 508 579 611 808 1070 1140 1310 1780
2020-07-09 01:45 4.26 1410 3480 (1949) 314 (1936) 908 416 508 579 611 808 1070 1140 1310 1780
2020-07-09 00:45 4.26 1410 3480 (1949) 314 (1936) 908 416 508 579 611 808 1070 1140 1310 1780
2020-07-08 23:45 4.26 1410 4490 (1949) 281 (1936) 952 432 526 586 617 811 1020 1140 1420 1650
2020-07-08 22:45 4.26 1410 4490 (1949) 281 (1936) 952 432 526 586 617 811 1020 1140 1420 1650
2020-07-08 21:45 4.26 1410 4490 (1949) 281 (1936) 952 432 526 586 617 811 1020 1140 1420 1650
2020-07-08 20:45 4.25 1410 4490 (1949) 281 (1936) 952 432 526 586 617 811 1020 1140 1420 1650
2020-07-08 19:45 4.27 1420 4490 (1949) 281 (1936) 952 432 526 586 617 811 1020 1140 1420 1650
2020-07-08 18:45 4.27 1420 4490 (1949) 281 (1936) 952 432 526 586 617 811 1020 1140 1420 1650
2020-07-08 17:45 4.28 1430 4490 (1949) 281 (1936) 952 432 526 586 617 811 1020 1140 1420 1650
2020-07-08 16:45 4.28 1430 4490 (1949) 281 (1936) 952 432 526 586 617 811 1020 1140 1420 1650
2020-07-08 15:45 4.29 1440 4490 (1949) 281 (1936) 952 432 526 586 617 811 1020 1140 1420 1650
2020-07-08 14:45 4.28 1430 4490 (1949) 281 (1936) 952 432 526 586 617 811 1020 1140 1420 1650
2020-07-08 13:45 4.29 1440 4490 (1949) 281 (1936) 952 432 526 586 617 811 1020 1140 1420 1650
2020-07-08 12:45 4.28 1430 4490 (1949) 281 (1936) 952 432 526 586 617 811 1020 1140 1420 1650
2020-07-08 11:45 4.24 1400 4490 (1949) 281 (1936) 952 432 526 586 617 811 1020 1140 1420 1650
2020-07-08 10:45 4.28 1430 4490 (1949) 281 (1936) 952 432 526 586 617 811 1020 1140 1420 1650
2020-07-08 09:45 4.28 1430 4490 (1949) 281 (1936) 952 432 526 586 617 811 1020 1140 1420 1650
2020-07-08 08:45 4.27 1420 4490 (1949) 281 (1936) 952 432 526 586 617 811 1020 1140 1420 1650
2020-07-08 07:45 4.28 1430 4490 (1949) 281 (1936) 952 432 526 586 617 811 1020 1140 1420 1650
2020-07-08 06:45 4.28 1430 4490 (1949) 281 (1936) 952 432 526 586 617 811 1020 1140 1420 1650
2020-07-08 05:45 4.28 1430 4490 (1949) 281 (1936) 952 432 526 586 617 811 1020 1140 1420 1650
2020-07-08 04:45 4.28 1430 4490 (1949) 281 (1936) 952 432 526 586 617 811 1020 1140 1420 1650
2020-07-08 03:45 4.29 1440 4490 (1949) 281 (1936) 952 432 526 586 617 811 1020 1140 1420 1650
2020-07-08 02:45 4.29 1440 4490 (1949) 281 (1936) 952 432 526 586 617 811 1020 1140 1420 1650
2020-07-08 01:45 4.29 1440 4490 (1949) 281 (1936) 952 432 526 586 617 811 1020 1140 1420 1650
2020-07-08 00:45 4.29 1440 4490 (1949) 281 (1936) 952 432 526 586 617 811 1020 1140 1420 1650
2020-07-07 23:45 4.29 1440 2920 (1949) 295 (1936) 901 445 527 611 630 818 1070 1140 1410 1680
2020-07-07 22:45 4.30 1440 2920 (1949) 295 (1936) 901 445 527 611 630 818 1070 1140 1410 1680
2020-07-07 21:45 4.31 1450 2920 (1949) 295 (1936) 901 445 527 611 630 818 1070 1140 1410 1680
2020-07-07 20:45 4.31 1450 2920 (1949) 295 (1936) 901 445 527 611 630 818 1070 1140 1410 1680
2020-07-07 19:45 4.31 1450 2920 (1949) 295 (1936) 901 445 527 611 630 818 1070 1140 1410 1680
2020-07-07 18:45 4.32 1460 2920 (1949) 295 (1936) 901 445 527 611 630 818 1070 1140 1410 1680
2020-07-07 17:45 4.32 1460 2920 (1949) 295 (1936) 901 445 527 611 630 818 1070 1140 1410 1680
2020-07-07 16:45 4.32 1460 2920 (1949) 295 (1936) 901 445 527 611 630 818 1070 1140 1410 1680
2020-07-07 15:45 4.34 1470 2920 (1949) 295 (1936) 901 445 527 611 630 818 1070 1140 1410 1680
2020-07-07 14:45 4.34 1470 2920 (1949) 295 (1936) 901 445 527 611 630 818 1070 1140 1410 1680
2020-07-07 13:45 4.35 1480 2920 (1949) 295 (1936) 901 445 527 611 630 818 1070 1140 1410 1680
2020-07-07 12:45 4.35 1480 2920 (1949) 295 (1936) 901 445 527 611 630 818 1070 1140 1410 1680
2020-07-07 11:45 4.37 1500 2920 (1949) 295 (1936) 901 445 527 611 630 818 1070 1140 1410 1680
2020-07-07 10:45 4.37 1500 2920 (1949) 295 (1936) 901 445 527 611 630 818 1070 1140 1410 1680
2020-07-07 09:45 4.37 1500 2920 (1949) 295 (1936) 901 445 527 611 630 818 1070 1140 1410 1680
2020-07-07 08:45 4.36 1490 2920 (1949) 295 (1936) 901 445 527 611 630 818 1070 1140 1410 1680
2020-07-07 07:45 4.36 1490 2920 (1949) 295 (1936) 901 445 527 611 630 818 1070 1140 1410 1680
2020-07-07 06:45 4.35 1480 2920 (1949) 295 (1936) 901 445 527 611 630 818 1070 1140 1410 1680
2020-07-07 05:45 4.34 1470 2920 (1949) 295 (1936) 901 445 527 611 630 818 1070 1140 1410 1680
2020-07-07 04:45 4.33 1470 2920 (1949) 295 (1936) 901 445 527 611 630 818 1070 1140 1410 1680
2020-07-07 03:45 4.32 1460 2920 (1949) 295 (1936) 901 445 527 611 630 818 1070 1140 1410 1680
2020-07-07 02:45 4.32 1460 2920 (1949) 295 (1936) 901 445 527 611 630 818 1070 1140 1410 1680
2020-07-07 01:45 4.31 1450 2920 (1949) 295 (1936) 901 445 527 611 630 818 1070 1140 1410 1680
2020-07-07 00:45 4.31 1450 2920 (1949) 295 (1936) 901 445 527 611 630 818 1070 1140 1410 1680
2020-07-06 23:45 4.33 1470 2100 (1976) 309 (1936) 915 481 539 609 641 838 1090 1170 1440 1780
2020-07-06 22:45 4.34 1470 2100 (1976) 309 (1936) 915 481 539 609 641 838 1090 1170 1440 1780
2020-07-06 21:45 4.35 1480 2100 (1976) 309 (1936) 915 481 539 609 641 838 1090 1170 1440 1780
2020-07-06 20:45 4.34 1470 2100 (1976) 309 (1936) 915 481 539 609 641 838 1090 1170 1440 1780
2020-07-06 19:45 4.32 1460 2100 (1976) 309 (1936) 915 481 539 609 641 838 1090 1170 1440 1780
2020-07-06 18:45 4.32 1460 2100 (1976) 309 (1936) 915 481 539 609 641 838 1090 1170 1440 1780
2020-07-06 17:45 4.32 1460 2100 (1976) 309 (1936) 915 481 539 609 641 838 1090 1170 1440 1780
2020-07-06 16:45 4.32 1460 2100 (1976) 309 (1936) 915 481 539 609 641 838 1090 1170 1440 1780
2020-07-06 15:45 4.32 1460 2100 (1976) 309 (1936) 915 481 539 609 641 838 1090 1170 1440 1780
2020-07-06 14:45 4.32 1460 2100 (1976) 309 (1936) 915 481 539 609 641 838 1090 1170 1440 1780
2020-07-06 13:45 4.31 1450 2100 (1976) 309 (1936) 915 481 539 609 641 838 1090 1170 1440 1780
2020-07-06 12:45 4.33 1470 2100 (1976) 309 (1936) 915 481 539 609 641 838 1090 1170 1440 1780
2020-07-06 11:45 4.32 1460 2100 (1976) 309 (1936) 915 481 539 609 641 838 1090 1170 1440 1780
2020-07-06 10:45 4.32 1460 2100 (1976) 309 (1936) 915 481 539 609 641 838 1090 1170 1440 1780
2020-07-06 09:45 4.32 1460 2100 (1976) 309 (1936) 915 481 539 609 641 838 1090 1170 1440 1780
2020-07-06 08:45 4.32 1460 2100 (1976) 309 (1936) 915 481 539 609 641 838 1090 1170 1440 1780
2020-07-06 07:45 4.32 1460 2100 (1976) 309 (1936) 915 481 539 609 641 838 1090 1170 1440 1780
2020-07-06 06:45 4.32 1460 2100 (1976) 309 (1936) 915 481 539 609 641 838 1090 1170 1440 1780
2020-07-06 05:45 4.33 1470 2100 (1976) 309 (1936) 915 481 539 609 641 838 1090 1170 1440 1780
2020-07-06 04:45 4.32 1460 2100 (1976) 309 (1936) 915 481 539 609 641 838 1090 1170 1440 1780
2020-07-06 03:45 4.33 1470 2100 (1976) 309 (1936) 915 481 539 609 641 838 1090 1170 1440 1780
2020-07-06 02:45 4.33 1470 2100 (1976) 309 (1936) 915 481 539 609 641 838 1090 1170 1440 1780
2020-07-06 01:45 4.33 1470 2100 (1976) 309 (1936) 915 481 539 609 641 838 1090 1170 1440 1780
2020-07-06 00:45 4.33 1470 2100 (1976) 309 (1936) 915 481 539 609 641 838 1090 1170 1440 1780

A total of 188 rows are displayed for years 1930 through 2016.